sensor_id;sensor_type;location;lat;lon;timestamp;P1;durP1;ratioP1;P2;durP2;ratioP2
3299;SDS011;1662;49.310;8.134;2023-04-10T00:01:49;12.50;;;11.30;;
3299;SDS011;1662;49.310;8.134;2023-04-10T00:04:15;13.30;;;12.00;;
3299;SDS011;1662;49.310;8.134;2023-04-10T00:06:41;13.30;;;12.07;;
3299;SDS011;1662;49.310;8.134;2023-04-10T00:09:07;13.63;;;12.43;;
3299;SDS011;1662;49.310;8.134;2023-04-10T00:11:35;13.00;;;11.90;;
3299;SDS011;1662;49.310;8.134;2023-04-10T00:14:01;12.70;;;11.50;;
3299;SDS011;1662;49.310;8.134;2023-04-10T00:16:26;11.83;;;10.73;;
3299;SDS011;1662;49.310;8.134;2023-04-10T00:18:52;12.03;;;10.97;;
3299;SDS011;1662;49.310;8.134;2023-04-10T00:21:17;10.90;;;9.90;;
3299;SDS011;1662;49.310;8.134;2023-04-10T00:23:43;11.93;;;10.83;;
3299;SDS011;1662;49.310;8.134;2023-04-10T00:26:09;10.90;;;9.90;;
3299;SDS011;1662;49.310;8.134;2023-04-10T00:28:35;12.30;;;11.07;;
3299;SDS011;1662;49.310;8.134;2023-04-10T00:31:02;12.97;;;11.73;;
3299;SDS011;1662;49.310;8.134;2023-04-10T00:33:31;12.40;;;11.30;;
3299;SDS011;1662;49.310;8.134;2023-04-10T00:35:56;11.63;;;10.53;;
3299;SDS011;1662;49.310;8.134;2023-04-10T00:38:22;10.77;;;9.73;;
3299;SDS011;1662;49.310;8.134;2023-04-10T00:40:48;11.13;;;10.13;;
3299;SDS011;1662;49.310;8.134;2023-04-10T00:43:13;13.40;;;10.30;;
3299;SDS011;1662;49.310;8.134;2023-04-10T00:45:39;10.77;;;9.77;;
3299;SDS011;1662;49.310;8.134;2023-04-10T00:48:05;12.33;;;11.10;;
3299;SDS011;1662;49.310;8.134;2023-04-10T00:50:31;11.93;;;10.80;;
3299;SDS011;1662;49.310;8.134;2023-04-10T00:52:57;10.67;;;9.67;;
3299;SDS011;1662;49.310;8.134;2023-04-10T00:55:23;12.73;;;11.43;;
3299;SDS011;1662;49.310;8.134;2023-04-10T00:57:49;12.07;;;10.87;;
3299;SDS011;1662;49.310;8.134;2023-04-10T01:00:19;11.77;;;10.70;;
3299;SDS011;1662;49.310;8.134;2023-04-10T01:02:45;13.33;;;12.00;;
3299;SDS011;1662;49.310;8.134;2023-04-10T01:05:11;12.40;;;11.20;;
3299;SDS011;1662;49.310;8.134;2023-04-10T01:15:51;12.60;;;11.40;;
3299;SDS011;1662;49.310;8.134;2023-04-10T01:18:25;12.57;;;11.27;;
3299;SDS011;1662;49.310;8.134;2023-04-10T01:21:17;11.20;;;10.10;;
3299;SDS011;1662;49.310;8.134;2023-04-10T01:23:58;12.60;;;11.43;;
3299;SDS011;1662;49.310;8.134;2023-04-10T01:26:49;12.53;;;10.87;;
3299;SDS011;1662;49.310;8.134;2023-04-10T01:29:28;12.33;;;11.03;;
3299;SDS011;1662;49.310;8.134;2023-04-10T01:31:57;12.37;;;10.53;;
3299;SDS011;1662;49.310;8.134;2023-04-10T01:34:31;11.50;;;10.30;;
3299;SDS011;1662;49.310;8.134;2023-04-10T01:37:01;11.70;;;10.50;;
3299;SDS011;1662;49.310;8.134;2023-04-10T01:39:30;11.90;;;10.77;;
3299;SDS011;1662;49.310;8.134;2023-04-10T01:42:00;12.40;;;11.10;;
3299;SDS011;1662;49.310;8.134;2023-04-10T01:44:29;12.03;;;10.77;;
3299;SDS011;1662;49.310;8.134;2023-04-10T01:46:56;13.53;;;11.30;;
3299;SDS011;1662;49.310;8.134;2023-04-10T01:49:25;10.70;;;9.73;;
3299;SDS011;1662;49.310;8.134;2023-04-10T01:51:52;13.27;;;11.13;;
3299;SDS011;1662;49.310;8.134;2023-04-10T01:54:23;11.20;;;10.00;;
3299;SDS011;1662;49.310;8.134;2023-04-10T01:56:52;13.80;;;11.03;;
3299;SDS011;1662;49.310;8.134;2023-04-10T01:59:18;13.50;;;11.20;;
3299;SDS011;1662;49.310;8.134;2023-04-10T02:01:45;13.33;;;11.93;;
3299;SDS011;1662;49.310;8.134;2023-04-10T02:04:12;11.67;;;10.03;;
3299;SDS011;1662;49.310;8.134;2023-04-10T02:06:48;14.17;;;11.53;;
3299;SDS011;1662;49.310;8.134;2023-04-10T02:09:27;11.37;;;10.37;;
3299;SDS011;1662;49.310;8.134;2023-04-10T02:12:15;10.87;;;9.77;;
3299;SDS011;1662;49.310;8.134;2023-04-10T02:14:46;11.57;;;10.40;;
3299;SDS011;1662;49.310;8.134;2023-04-10T02:17:15;11.80;;;10.60;;
3299;SDS011;1662;49.310;8.134;2023-04-10T02:19:44;12.40;;;10.97;;
3299;SDS011;1662;49.310;8.134;2023-04-10T02:22:12;11.87;;;10.67;;
3299;SDS011;1662;49.310;8.134;2023-04-10T02:24:40;11.00;;;9.93;;
3299;SDS011;1662;49.310;8.134;2023-04-10T02:27:05;11.53;;;10.33;;
3299;SDS011;1662;49.310;8.134;2023-04-10T02:29:31;13.10;;;11.70;;
3299;SDS011;1662;49.310;8.134;2023-04-10T02:31:58;11.87;;;10.30;;
3299;SDS011;1662;49.310;8.134;2023-04-10T02:34:24;12.37;;;10.97;;
3299;SDS011;1662;49.310;8.134;2023-04-10T02:36:50;10.80;;;9.80;;
3299;SDS011;1662;49.310;8.134;2023-04-10T02:39:16;12.73;;;10.50;;
3299;SDS011;1662;49.310;8.134;2023-04-10T02:41:42;11.93;;;10.70;;
3299;SDS011;1662;49.310;8.134;2023-04-10T02:44:07;13.50;;;11.63;;
3299;SDS011;1662;49.310;8.134;2023-04-10T02:46:33;11.87;;;10.10;;
3299;SDS011;1662;49.310;8.134;2023-04-10T02:48:58;15.77;;;11.70;;
3299;SDS011;1662;49.310;8.134;2023-04-10T02:51:24;15.70;;;12.70;;
3299;SDS011;1662;49.310;8.134;2023-04-10T02:53:50;12.10;;;10.70;;
3299;SDS011;1662;49.310;8.134;2023-04-10T02:56:17;12.97;;;11.60;;
3299;SDS011;1662;49.310;8.134;2023-04-10T02:58:43;13.70;;;10.80;;
3299;SDS011;1662;49.310;8.134;2023-04-10T03:01:10;14.43;;;10.90;;
3299;SDS011;1662;49.310;8.134;2023-04-10T03:03:36;11.90;;;10.30;;
3299;SDS011;1662;49.310;8.134;2023-04-10T03:06:02;14.80;;;11.87;;
3299;SDS011;1662;49.310;8.134;2023-04-10T03:08:29;13.43;;;11.23;;
3299;SDS011;1662;49.310;8.134;2023-04-10T03:10:55;16.47;;;10.67;;
3299;SDS011;1662;49.310;8.134;2023-04-10T03:13:23;12.77;;;10.77;;
3299;SDS011;1662;49.310;8.134;2023-04-10T03:15:49;12.13;;;10.93;;
3299;SDS011;1662;49.310;8.134;2023-04-10T03:18:14;12.93;;;11.30;;
3299;SDS011;1662;49.310;8.134;2023-04-10T03:20:40;12.27;;;10.63;;
3299;SDS011;1662;49.310;8.134;2023-04-10T03:23:05;13.70;;;11.00;;
3299;SDS011;1662;49.310;8.134;2023-04-10T03:25:34;13.37;;;11.43;;
3299;SDS011;1662;49.310;8.134;2023-04-10T03:28:00;13.40;;;11.77;;
3299;SDS011;1662;49.310;8.134;2023-04-10T03:30:26;11.00;;;9.67;;
3299;SDS011;1662;49.310;8.134;2023-04-10T03:32:52;12.93;;;11.50;;
3299;SDS011;1662;49.310;8.134;2023-04-10T03:35:18;14.40;;;11.67;;
3299;SDS011;1662;49.310;8.134;2023-04-10T03:37:43;13.00;;;11.20;;
3299;SDS011;1662;49.310;8.134;2023-04-10T03:40:09;13.30;;;11.57;;
3299;SDS011;1662;49.310;8.134;2023-04-10T03:42:35;14.53;;;12.03;;
3299;SDS011;1662;49.310;8.134;2023-04-10T03:45:04;13.77;;;11.63;;
3299;SDS011;1662;49.310;8.134;2023-04-10T03:47:32;16.23;;;11.90;;
3299;SDS011;1662;49.310;8.134;2023-04-10T03:50:00;12.50;;;11.05;;
3299;SDS011;1662;49.310;8.134;2023-04-10T03:52:26;14.23;;;10.90;;
3299;SDS011;1662;49.310;8.134;2023-04-10T03:54:52;13.80;;;12.13;;
3299;SDS011;1662;49.310;8.134;2023-04-10T03:57:18;10.53;;;9.43;;
3299;SDS011;1662;49.310;8.134;2023-04-10T03:59:45;14.57;;;10.90;;
3299;SDS011;1662;49.310;8.134;2023-04-10T04:02:11;14.52;;;11.35;;
3299;SDS011;1662;49.310;8.134;2023-04-10T04:04:37;13.20;;;11.20;;
3299;SDS011;1662;49.310;8.134;2023-04-10T04:07:03;14.60;;;11.20;;
3299;SDS011;1662;49.310;8.134;2023-04-10T04:09:28;12.17;;;10.70;;
3299;SDS011;1662;49.310;8.134;2023-04-10T04:11:54;11.70;;;9.70;;
3299;SDS011;1662;49.310;8.134;2023-04-10T04:14:20;11.85;;;10.57;;
3299;SDS011;1662;49.310;8.134;2023-04-10T04:16:46;13.70;;;10.80;;
3299;SDS011;1662;49.310;8.134;2023-04-10T04:19:12;12.38;;;11.10;;
3299;SDS011;1662;49.310;8.134;2023-04-10T04:21:38;12.03;;;10.73;;
3299;SDS011;1662;49.310;8.134;2023-04-10T04:24:04;13.17;;;10.50;;
3299;SDS011;1662;49.310;8.134;2023-04-10T04:26:30;11.97;;;10.67;;
3299;SDS011;1662;49.310;8.134;2023-04-10T04:28:55;13.53;;;10.90;;
3299;SDS011;1662;49.310;8.134;2023-04-10T04:31:23;11.27;;;10.07;;
3299;SDS011;1662;49.310;8.134;2023-04-10T04:33:56;11.60;;;10.18;;
3299;SDS011;1662;49.310;8.134;2023-04-10T04:36:22;11.73;;;10.07;;
3299;SDS011;1662;49.310;8.134;2023-04-10T04:38:48;12.10;;;10.90;;
3299;SDS011;1662;49.310;8.134;2023-04-10T04:41:13;12.67;;;10.87;;
3299;SDS011;1662;49.310;8.134;2023-04-10T04:43:39;12.80;;;10.45;;
3299;SDS011;1662;49.310;8.134;2023-04-10T04:46:05;11.20;;;9.87;;
3299;SDS011;1662;49.310;8.134;2023-04-10T04:48:31;11.30;;;10.20;;
3299;SDS011;1662;49.310;8.134;2023-04-10T04:50:56;13.60;;;10.47;;
3299;SDS011;1662;49.310;8.134;2023-04-10T04:53:22;12.13;;;10.10;;
3299;SDS011;1662;49.310;8.134;2023-04-10T04:55:47;10.47;;;9.47;;
3299;SDS011;1662;49.310;8.134;2023-04-10T04:58:13;11.63;;;10.23;;
3299;SDS011;1662;49.310;8.134;2023-04-10T05:00:38;12.17;;;10.53;;
3299;SDS011;1662;49.310;8.134;2023-04-10T05:03:04;13.03;;;10.53;;
3299;SDS011;1662;49.310;8.134;2023-04-10T05:05:30;11.85;;;9.73;;
3299;SDS011;1662;49.310;8.134;2023-04-10T05:07:56;13.53;;;11.03;;
3299;SDS011;1662;49.310;8.134;2023-04-10T05:10:21;13.10;;;11.53;;
3299;SDS011;1662;49.310;8.134;2023-04-10T05:12:47;14.87;;;11.67;;
3299;SDS011;1662;49.310;8.134;2023-04-10T05:15:13;13.03;;;10.90;;
3299;SDS011;1662;49.310;8.134;2023-04-10T05:17:38;11.30;;;9.80;;
3299;SDS011;1662;49.310;8.134;2023-04-10T05:20:04;14.00;;;11.10;;
3299;SDS011;1662;49.310;8.134;2023-04-10T05:22:30;13.32;;;10.95;;
3299;SDS011;1662;49.310;8.134;2023-04-10T05:24:56;12.53;;;11.20;;
3299;SDS011;1662;49.310;8.134;2023-04-10T05:27:22;14.27;;;11.30;;
3299;SDS011;1662;49.310;8.134;2023-04-10T05:29:49;11.65;;;10.25;;
3299;SDS011;1662;49.310;8.134;2023-04-10T05:32:15;13.30;;;11.10;;
3299;SDS011;1662;49.310;8.134;2023-04-10T05:34:40;13.33;;;11.17;;
3299;SDS011;1662;49.310;8.134;2023-04-10T05:37:06;13.10;;;10.70;;
3299;SDS011;1662;49.310;8.134;2023-04-10T05:39:32;11.82;;;9.90;;
3299;SDS011;1662;49.310;8.134;2023-04-10T05:41:58;13.40;;;10.40;;
3299;SDS011;1662;49.310;8.134;2023-04-10T05:44:24;11.13;;;9.60;;
3299;SDS011;1662;49.310;8.134;2023-04-10T05:46:50;12.07;;;10.20;;
3299;SDS011;1662;49.310;8.134;2023-04-10T05:49:16;12.43;;;10.27;;
3299;SDS011;1662;49.310;8.134;2023-04-10T05:51:41;12.03;;;10.47;;
3299;SDS011;1662;49.310;8.134;2023-04-10T05:54:09;13.57;;;10.67;;
3299;SDS011;1662;49.310;8.134;2023-04-10T05:56:35;14.18;;;12.00;;
3299;SDS011;1662;49.310;8.134;2023-04-10T05:59:00;14.80;;;10.10;;
3299;SDS011;1662;49.310;8.134;2023-04-10T06:01:26;10.90;;;9.70;;
3299;SDS011;1662;49.310;8.134;2023-04-10T06:03:54;13.52;;;11.00;;
3299;SDS011;1662;49.310;8.134;2023-04-10T06:06:19;12.43;;;9.80;;
3299;SDS011;1662;49.310;8.134;2023-04-10T06:08:46;12.45;;;10.57;;
3299;SDS011;1662;49.310;8.134;2023-04-10T06:11:11;14.17;;;10.13;;
3299;SDS011;1662;49.310;8.134;2023-04-10T06:13:37;11.50;;;10.30;;
3299;SDS011;1662;49.310;8.134;2023-04-10T06:16:03;12.97;;;10.90;;
3299;SDS011;1662;49.310;8.134;2023-04-10T06:18:29;12.40;;;10.27;;
3299;SDS011;1662;49.310;8.134;2023-04-10T06:20:55;12.70;;;10.50;;
3299;SDS011;1662;49.310;8.134;2023-04-10T06:23:22;11.95;;;9.88;;
3299;SDS011;1662;49.310;8.134;2023-04-10T06:25:47;14.13;;;10.80;;
3299;SDS011;1662;49.310;8.134;2023-04-10T06:28:13;12.57;;;10.23;;
3299;SDS011;1662;49.310;8.134;2023-04-10T06:30:38;10.83;;;9.40;;
3299;SDS011;1662;49.310;8.134;2023-04-10T06:33:04;11.23;;;10.10;;
3299;SDS011;1662;49.310;8.134;2023-04-10T06:35:30;10.93;;;9.73;;
3299;SDS011;1662;49.310;8.134;2023-04-10T06:37:56;13.13;;;11.07;;
3299;SDS011;1662;49.310;8.134;2023-04-10T06:40:24;13.30;;;10.30;;
3299;SDS011;1662;49.310;8.134;2023-04-10T06:42:50;11.60;;;10.13;;
3299;SDS011;1662;49.310;8.134;2023-04-10T06:45:15;14.67;;;10.37;;
3299;SDS011;1662;49.310;8.134;2023-04-10T06:47:41;15.23;;;11.87;;
3299;SDS011;1662;49.310;8.134;2023-04-10T06:50:07;10.83;;;9.70;;
3299;SDS011;1662;49.310;8.134;2023-04-10T06:52:32;10.70;;;9.60;;
3299;SDS011;1662;49.310;8.134;2023-04-10T06:54:58;10.43;;;9.37;;
3299;SDS011;1662;49.310;8.134;2023-04-10T06:57:24;9.47;;;8.57;;
3299;SDS011;1662;49.310;8.134;2023-04-10T06:59:49;12.20;;;10.23;;
3299;SDS011;1662;49.310;8.134;2023-04-10T07:02:15;11.20;;;9.00;;
3299;SDS011;1662;49.310;8.134;2023-04-10T07:04:41;10.10;;;8.83;;
3299;SDS011;1662;49.310;8.134;2023-04-10T07:07:08;10.70;;;9.60;;
3299;SDS011;1662;49.310;8.134;2023-04-10T07:09:36;11.30;;;9.77;;
3299;SDS011;1662;49.310;8.134;2023-04-10T07:12:02;10.90;;;9.27;;
3299;SDS011;1662;49.310;8.134;2023-04-10T07:14:28;8.47;;;7.63;;
3299;SDS011;1662;49.310;8.134;2023-04-10T07:16:53;10.63;;;9.53;;
3299;SDS011;1662;49.310;8.134;2023-04-10T07:19:21;13.50;;;10.90;;
3299;SDS011;1662;49.310;8.134;2023-04-10T07:21:47;10.63;;;9.47;;
3299;SDS011;1662;49.310;8.134;2023-04-10T07:24:14;10.53;;;9.43;;
3299;SDS011;1662;49.310;8.134;2023-04-10T07:26:41;10.73;;;9.27;;
3299;SDS011;1662;49.310;8.134;2023-04-10T07:29:07;9.73;;;8.27;;
3299;SDS011;1662;49.310;8.134;2023-04-10T07:31:33;9.67;;;8.77;;
3299;SDS011;1662;49.310;8.134;2023-04-10T07:33:59;9.63;;;8.63;;
3299;SDS011;1662;49.310;8.134;2023-04-10T07:36:25;10.03;;;8.50;;
3299;SDS011;1662;49.310;8.134;2023-04-10T07:38:51;10.57;;;9.47;;
3299;SDS011;1662;49.310;8.134;2023-04-10T07:41:16;10.73;;;9.30;;
3299;SDS011;1662;49.310;8.134;2023-04-10T07:43:46;12.00;;;10.60;;
3299;SDS011;1662;49.310;8.134;2023-04-10T07:46:12;11.10;;;10.00;;
3299;SDS011;1662;49.310;8.134;2023-04-10T07:48:38;10.53;;;9.43;;
3299;SDS011;1662;49.310;8.134;2023-04-10T07:51:06;11.90;;;9.60;;
3299;SDS011;1662;49.310;8.134;2023-04-10T07:53:34;11.00;;;9.87;;
3299;SDS011;1662;49.310;8.134;2023-04-10T07:56:00;11.63;;;10.43;;
3299;SDS011;1662;49.310;8.134;2023-04-10T07:58:26;14.33;;;9.83;;
3299;SDS011;1662;49.310;8.134;2023-04-10T08:00:52;10.73;;;9.63;;
3299;SDS011;1662;49.310;8.134;2023-04-10T08:03:20;10.80;;;9.70;;
3299;SDS011;1662;49.310;8.134;2023-04-10T08:05:46;10.93;;;9.83;;
3299;SDS011;1662;49.310;8.134;2023-04-10T08:08:12;10.27;;;9.27;;
3299;SDS011;1662;49.310;8.134;2023-04-10T08:10:39;13.27;;;11.27;;
3299;SDS011;1662;49.310;8.134;2023-04-10T08:13:04;13.07;;;10.50;;
3299;SDS011;1662;49.310;8.134;2023-04-10T08:15:30;11.20;;;9.73;;
3299;SDS011;1662;49.310;8.134;2023-04-10T08:17:56;12.80;;;10.37;;
3299;SDS011;1662;49.310;8.134;2023-04-10T08:20:21;13.23;;;11.10;;
3299;SDS011;1662;49.310;8.134;2023-04-10T08:22:47;11.30;;;10.10;;
3299;SDS011;1662;49.310;8.134;2023-04-10T08:25:15;10.60;;;9.50;;
3299;SDS011;1662;49.310;8.134;2023-04-10T08:27:41;13.20;;;10.63;;
3299;SDS011;1662;49.310;8.134;2023-04-10T08:30:07;10.33;;;9.33;;
3299;SDS011;1662;49.310;8.134;2023-04-10T08:32:33;11.67;;;10.57;;
3299;SDS011;1662;49.310;8.134;2023-04-10T08:34:58;16.00;;;10.67;;
3299;SDS011;1662;49.310;8.134;2023-04-10T08:37:24;11.23;;;9.07;;
3299;SDS011;1662;49.310;8.134;2023-04-10T08:39:50;12.30;;;11.00;;
3299;SDS011;1662;49.310;8.134;2023-04-10T08:42:16;11.30;;;10.20;;
3299;SDS011;1662;49.310;8.134;2023-04-10T08:44:42;9.97;;;8.83;;
3299;SDS011;1662;49.310;8.134;2023-04-10T08:47:08;12.73;;;11.20;;
3299;SDS011;1662;49.310;8.134;2023-04-10T08:52:30;10.60;;;9.60;;
3299;SDS011;1662;49.310;8.134;2023-04-10T08:55:01;10.67;;;9.67;;
3299;SDS011;1662;49.310;8.134;2023-04-10T08:57:32;9.90;;;9.00;;
3299;SDS011;1662;49.310;8.134;2023-04-10T09:00:00;10.90;;;9.80;;
3299;SDS011;1662;49.310;8.134;2023-04-10T09:02:27;10.67;;;9.57;;
3299;SDS011;1662;49.310;8.134;2023-04-10T09:04:53;11.40;;;10.30;;
3299;SDS011;1662;49.310;8.134;2023-04-10T09:07:23;10.50;;;9.43;;
3299;SDS011;1662;49.310;8.134;2023-04-10T09:09:48;9.57;;;8.80;;
3299;SDS011;1662;49.310;8.134;2023-04-10T09:12:14;11.23;;;10.20;;
3299;SDS011;1662;49.310;8.134;2023-04-10T09:14:42;9.50;;;8.70;;
3299;SDS011;1662;49.310;8.134;2023-04-10T09:19:40;10.07;;;9.07;;
3299;SDS011;1662;49.310;8.134;2023-04-10T09:22:07;10.97;;;9.97;;
3299;SDS011;1662;49.310;8.134;2023-04-10T09:24:36;11.30;;;10.10;;
3299;SDS011;1662;49.310;8.134;2023-04-10T09:27:07;11.33;;;10.13;;
3299;SDS011;1662;49.310;8.134;2023-04-10T09:29:51;11.83;;;10.83;;
3299;SDS011;1662;49.310;8.134;2023-04-10T09:35:10;7.90;;;7.20;;
3299;SDS011;1662;49.310;8.134;2023-04-10T09:37:37;9.30;;;8.50;;
3299;SDS011;1662;49.310;8.134;2023-04-10T09:40:05;9.30;;;8.50;;
3299;SDS011;1662;49.310;8.134;2023-04-10T09:42:43;11.63;;;10.63;;
3299;SDS011;1662;49.310;8.134;2023-04-10T09:45:09;9.10;;;8.33;;
3299;SDS011;1662;49.310;8.134;2023-04-10T09:47:34;10.20;;;9.30;;
3299;SDS011;1662;49.310;8.134;2023-04-10T09:50:00;10.57;;;9.67;;
3299;SDS011;1662;49.310;8.134;2023-04-10T09:54:56;10.27;;;9.40;;
3299;SDS011;1662;49.310;8.134;2023-04-10T09:57:30;8.87;;;8.20;;
3299;SDS011;1662;49.310;8.134;2023-04-10T09:59:58;9.83;;;9.03;;
3299;SDS011;1662;49.310;8.134;2023-04-10T10:02:26;9.60;;;8.90;;
3299;SDS011;1662;49.310;8.134;2023-04-10T10:04:54;9.27;;;8.47;;
3299;SDS011;1662;49.310;8.134;2023-04-10T10:07:22;10.33;;;9.53;;
3299;SDS011;1662;49.310;8.134;2023-04-10T10:09:51;8.83;;;8.23;;
3299;SDS011;1662;49.310;8.134;2023-04-10T10:12:21;9.77;;;9.07;;
3299;SDS011;1662;49.310;8.134;2023-04-10T10:15:06;12.33;;;11.23;;
3299;SDS011;1662;49.310;8.134;2023-04-10T10:17:41;9.67;;;9.00;;
3299;SDS011;1662;49.310;8.134;2023-04-10T10:20:10;8.70;;;8.00;;
3299;SDS011;1662;49.310;8.134;2023-04-10T10:22:37;10.27;;;9.50;;
3299;SDS011;1662;49.310;8.134;2023-04-10T10:25:04;9.73;;;9.03;;
3299;SDS011;1662;49.310;8.134;2023-04-10T10:27:35;10.27;;;9.37;;
3299;SDS011;1662;49.310;8.134;2023-04-10T10:30:02;10.07;;;9.37;;
3299;SDS011;1662;49.310;8.134;2023-04-10T10:32:33;9.20;;;8.60;;
3299;SDS011;1662;49.310;8.134;2023-04-10T10:35:00;8.70;;;8.20;;
3299;SDS011;1662;49.310;8.134;2023-04-10T10:37:29;8.80;;;8.20;;
3299;SDS011;1662;49.310;8.134;2023-04-10T10:40:09;9.40;;;8.80;;
3299;SDS011;1662;49.310;8.134;2023-04-10T10:42:52;9.87;;;9.27;;
3299;SDS011;1662;49.310;8.134;2023-04-10T10:45:47;8.70;;;8.20;;
3299;SDS011;1662;49.310;8.134;2023-04-10T10:48:29;9.63;;;9.07;;
3299;SDS011;1662;49.310;8.134;2023-04-10T10:50:56;9.63;;;9.13;;
3299;SDS011;1662;49.310;8.134;2023-04-10T10:55:57;9.70;;;9.13;;
3299;SDS011;1662;49.310;8.134;2023-04-10T11:01:12;10.20;;;9.60;;
3299;SDS011;1662;49.310;8.134;2023-04-10T11:03:38;9.70;;;9.20;;
3299;SDS011;1662;49.310;8.134;2023-04-10T11:06:09;9.10;;;8.50;;
3299;SDS011;1662;49.310;8.134;2023-04-10T11:08:38;8.83;;;8.33;;
3299;SDS011;1662;49.310;8.134;2023-04-10T11:16:13;9.30;;;8.90;;
3299;SDS011;1662;49.310;8.134;2023-04-10T11:21:18;9.40;;;8.90;;
3299;SDS011;1662;49.310;8.134;2023-04-10T11:28:58;9.00;;;8.60;;
3299;SDS011;1662;49.310;8.134;2023-04-10T11:31:36;9.17;;;8.77;;
3299;SDS011;1662;49.310;8.134;2023-04-10T11:36:32;9.53;;;9.10;;
3299;SDS011;1662;49.310;8.134;2023-04-10T11:43:59;9.30;;;8.90;;
3299;SDS011;1662;49.310;8.134;2023-04-10T11:46:26;8.70;;;8.40;;
3299;SDS011;1662;49.310;8.134;2023-04-10T11:48:53;9.37;;;9.00;;
3299;SDS011;1662;49.310;8.134;2023-04-10T11:51:23;9.33;;;9.03;;
3299;SDS011;1662;49.310;8.134;2023-04-10T11:54:02;9.67;;;9.17;;
3299;SDS011;1662;49.310;8.134;2023-04-10T11:56:36;9.57;;;9.17;;
3299;SDS011;1662;49.310;8.134;2023-04-10T11:59:02;9.67;;;9.17;;
3299;SDS011;1662;49.310;8.134;2023-04-10T12:01:33;8.97;;;8.67;;
3299;SDS011;1662;49.310;8.134;2023-04-10T12:03:59;9.57;;;9.13;;
3299;SDS011;1662;49.310;8.134;2023-04-10T12:06:25;10.20;;;9.70;;
3299;SDS011;1662;49.310;8.134;2023-04-10T12:08:52;9.93;;;9.43;;
3299;SDS011;1662;49.310;8.134;2023-04-10T12:11:19;10.40;;;9.80;;
3299;SDS011;1662;49.310;8.134;2023-04-10T12:13:46;10.43;;;9.93;;
3299;SDS011;1662;49.310;8.134;2023-04-10T12:16:12;10.57;;;10.03;;
3299;SDS011;1662;49.310;8.134;2023-04-10T12:18:39;10.00;;;9.40;;
3299;SDS011;1662;49.310;8.134;2023-04-10T12:21:05;9.13;;;8.80;;
3299;SDS011;1662;49.310;8.134;2023-04-10T12:23:34;9.30;;;9.00;;
3299;SDS011;1662;49.310;8.134;2023-04-10T12:26:14;10.27;;;9.80;;
3299;SDS011;1662;49.310;8.134;2023-04-10T12:28:52;10.30;;;9.80;;
3299;SDS011;1662;49.310;8.134;2023-04-10T12:31:25;10.53;;;10.03;;
3299;SDS011;1662;49.310;8.134;2023-04-10T12:33:59;10.93;;;10.43;;
3299;SDS011;1662;49.310;8.134;2023-04-10T12:36:26;10.20;;;9.80;;
3299;SDS011;1662;49.310;8.134;2023-04-10T12:38:53;10.70;;;10.30;;
3299;SDS011;1662;49.310;8.134;2023-04-10T12:41:21;10.20;;;9.80;;
3299;SDS011;1662;49.310;8.134;2023-04-10T12:43:48;10.23;;;9.83;;
3299;SDS011;1662;49.310;8.134;2023-04-10T12:46:25;11.03;;;10.53;;
3299;SDS011;1662;49.310;8.134;2023-04-10T12:48:51;10.87;;;10.43;;
3299;SDS011;1662;49.310;8.134;2023-04-10T12:51:17;11.03;;;10.53;;
3299;SDS011;1662;49.310;8.134;2023-04-10T12:53:43;11.30;;;10.70;;
3299;SDS011;1662;49.310;8.134;2023-04-10T12:56:10;11.40;;;10.80;;
3299;SDS011;1662;49.310;8.134;2023-04-10T12:58:36;10.23;;;9.83;;
3299;SDS011;1662;49.310;8.134;2023-04-10T13:01:06;10.20;;;9.80;;
3299;SDS011;1662;49.310;8.134;2023-04-10T13:03:36;10.40;;;9.90;;
3299;SDS011;1662;49.310;8.134;2023-04-10T13:06:03;10.13;;;9.63;;
3299;SDS011;1662;49.310;8.134;2023-04-10T13:08:30;9.20;;;8.80;;
3299;SDS011;1662;49.310;8.134;2023-04-10T13:10:57;9.37;;;9.07;;
3299;SDS011;1662;49.310;8.134;2023-04-10T13:13:27;10.43;;;9.93;;
3299;SDS011;1662;49.310;8.134;2023-04-10T13:15:53;9.67;;;9.37;;
3299;SDS011;1662;49.310;8.134;2023-04-10T13:18:19;9.73;;;9.33;;
3299;SDS011;1662;49.310;8.134;2023-04-10T13:20:47;9.40;;;9.10;;
3299;SDS011;1662;49.310;8.134;2023-04-10T13:23:13;9.40;;;9.10;;
3299;SDS011;1662;49.310;8.134;2023-04-10T13:25:39;10.00;;;9.60;;
3299;SDS011;1662;49.310;8.134;2023-04-10T13:28:07;9.00;;;8.70;;
3299;SDS011;1662;49.310;8.134;2023-04-10T13:30:37;9.40;;;9.00;;
3299;SDS011;1662;49.310;8.134;2023-04-10T13:33:06;9.63;;;9.23;;
3299;SDS011;1662;49.310;8.134;2023-04-10T13:35:32;10.33;;;9.93;;
3299;SDS011;1662;49.310;8.134;2023-04-10T13:37:58;10.73;;;10.33;;
3299;SDS011;1662;49.310;8.134;2023-04-10T13:40:24;10.33;;;9.93;;
3299;SDS011;1662;49.310;8.134;2023-04-10T13:42:50;10.30;;;9.90;;
3299;SDS011;1662;49.310;8.134;2023-04-10T13:45:15;9.60;;;9.30;;
3299;SDS011;1662;49.310;8.134;2023-04-10T13:47:41;9.70;;;9.30;;
3299;SDS011;1662;49.310;8.134;2023-04-10T13:50:07;10.50;;;10.03;;
3299;SDS011;1662;49.310;8.134;2023-04-10T13:52:33;9.20;;;8.90;;
3299;SDS011;1662;49.310;8.134;2023-04-10T13:54:59;9.47;;;9.17;;
3299;SDS011;1662;49.310;8.134;2023-04-10T13:57:25;10.17;;;9.77;;
3299;SDS011;1662;49.310;8.134;2023-04-10T13:59:50;9.10;;;8.80;;
3299;SDS011;1662;49.310;8.134;2023-04-10T14:02:18;9.50;;;9.20;;
3299;SDS011;1662;49.310;8.134;2023-04-10T14:04:44;9.77;;;9.40;;
3299;SDS011;1662;49.310;8.134;2023-04-10T14:07:10;9.33;;;9.03;;
3299;SDS011;1662;49.310;8.134;2023-04-10T14:09:36;10.30;;;9.90;;
3299;SDS011;1662;49.310;8.134;2023-04-10T14:12:04;9.77;;;9.47;;
3299;SDS011;1662;49.310;8.134;2023-04-10T14:14:30;10.23;;;9.83;;
3299;SDS011;1662;49.310;8.134;2023-04-10T14:16:56;10.10;;;9.67;;
3299;SDS011;1662;49.310;8.134;2023-04-10T14:19:21;10.23;;;9.83;;
3299;SDS011;1662;49.310;8.134;2023-04-10T14:21:47;9.50;;;9.20;;
3299;SDS011;1662;49.310;8.134;2023-04-10T14:24:12;10.60;;;10.20;;
3299;SDS011;1662;49.310;8.134;2023-04-10T14:26:38;9.73;;;9.43;;
3299;SDS011;1662;49.310;8.134;2023-04-10T14:29:04;9.63;;;9.30;;
3299;SDS011;1662;49.310;8.134;2023-04-10T14:31:32;9.47;;;9.00;;
3299;SDS011;1662;49.310;8.134;2023-04-10T14:33:58;9.80;;;9.23;;
3299;SDS011;1662;49.310;8.134;2023-04-10T14:36:23;9.43;;;9.13;;
3299;SDS011;1662;49.310;8.134;2023-04-10T14:38:52;9.00;;;8.70;;
3299;SDS011;1662;49.310;8.134;2023-04-10T14:41:20;9.20;;;8.90;;
3299;SDS011;1662;49.310;8.134;2023-04-10T14:43:46;9.17;;;8.80;;
3299;SDS011;1662;49.310;8.134;2023-04-10T14:46:11;9.03;;;8.63;;
3299;SDS011;1662;49.310;8.134;2023-04-10T14:48:37;9.03;;;8.73;;
3299;SDS011;1662;49.310;8.134;2023-04-10T14:51:02;9.17;;;8.87;;
3299;SDS011;1662;49.310;8.134;2023-04-10T14:53:36;9.70;;;9.30;;
3299;SDS011;1662;49.310;8.134;2023-04-10T14:56:08;9.20;;;8.90;;
3299;SDS011;1662;49.310;8.134;2023-04-10T14:58:37;9.57;;;9.17;;
3299;SDS011;1662;49.310;8.134;2023-04-10T15:01:06;9.27;;;8.97;;
3299;SDS011;1662;49.310;8.134;2023-04-10T15:03:36;8.90;;;8.60;;
3299;SDS011;1662;49.310;8.134;2023-04-10T15:06:02;9.10;;;8.80;;
3299;SDS011;1662;49.310;8.134;2023-04-10T15:08:27;9.13;;;8.83;;
3299;SDS011;1662;49.310;8.134;2023-04-10T15:10:53;8.67;;;8.27;;
3299;SDS011;1662;49.310;8.134;2023-04-10T15:13:19;8.67;;;8.37;;
3299;SDS011;1662;49.310;8.134;2023-04-10T15:15:45;8.63;;;8.33;;
3299;SDS011;1662;49.310;8.134;2023-04-10T15:18:13;9.27;;;8.87;;
3299;SDS011;1662;49.310;8.134;2023-04-10T15:20:39;9.50;;;8.87;;
3299;SDS011;1662;49.310;8.134;2023-04-10T15:23:05;8.43;;;8.17;;
3299;SDS011;1662;49.310;8.134;2023-04-10T15:25:33;8.63;;;8.33;;
3299;SDS011;1662;49.310;8.134;2023-04-10T15:27:59;8.63;;;8.33;;
3299;SDS011;1662;49.310;8.134;2023-04-10T15:30:25;9.23;;;8.93;;
3299;SDS011;1662;49.310;8.134;2023-04-10T15:32:51;8.50;;;8.20;;
3299;SDS011;1662;49.310;8.134;2023-04-10T15:35:16;9.03;;;8.30;;
3299;SDS011;1662;49.310;8.134;2023-04-10T15:37:42;8.77;;;8.43;;
3299;SDS011;1662;49.310;8.134;2023-04-10T15:40:08;8.57;;;8.27;;
3299;SDS011;1662;49.310;8.134;2023-04-10T15:42:34;9.57;;;9.07;;
3299;SDS011;1662;49.310;8.134;2023-04-10T15:45:01;8.90;;;8.60;;